createdAt,value
2019-03-20T07:27:20.551Z,1473.75
2019-03-20T07:28:20.495Z,1479.38
2019-03-20T07:29:20.486Z,1496.25
2019-03-20T07:30:21.161Z,1513.12
2019-03-20T07:31:20.459Z,1456.88
2019-03-20T07:32:20.448Z,1468.12
2019-03-20T07:33:20.444Z,1479.38
2019-03-20T07:34:20.421Z,1513.12
2019-03-20T07:35:20.420Z,1462.50
2019-03-20T07:36:20.420Z,1366.88
2019-03-20T07:37:20.400Z,1473.75
2019-03-20T07:38:20.389Z,1620.00
2019-03-20T07:39:20.363Z,1631.25
2019-03-20T07:40:20.359Z,1608.75
2019-03-20T07:41:20.420Z,1631.25
2019-03-20T07:42:20.354Z,1721.25
2019-03-20T07:43:20.332Z,1800.00
2019-03-20T07:44:20.313Z,1732.50
2019-03-20T07:45:20.318Z,1726.88
2019-03-20T07:46:20.320Z,1766.25
2019-03-20T07:47:20.282Z,1704.38
2019-03-20T07:48:22.401Z,1659.38
2019-03-20T07:49:20.307Z,1670.62
2019-03-20T07:50:20.243Z,1721.25
2019-03-20T07:51:20.242Z,1704.38
2019-03-20T07:52:20.253Z,1828.12
2019-03-20T07:53:20.224Z,1895.62
2019-03-20T07:54:20.244Z,1828.12
2019-03-20T07:55:20.244Z,1839.38
2019-03-20T07:56:20.192Z,1856.25
2019-03-20T07:57:20.196Z,1906.88
2019-03-20T07:58:20.163Z,1940.62
2019-03-20T07:59:20.154Z,1985.62
2019-03-20T08:00:20.141Z,1985.62
2019-03-20T08:01:20.434Z,1980.00
2019-03-20T08:02:20.118Z,1974.38
2019-03-20T08:03:20.121Z,1940.62
2019-03-20T08:04:20.095Z,2098.12
2019-03-20T08:05:28.779Z,2019.38
2019-03-20T08:06:21.079Z,1951.88
2019-03-20T08:07:20.068Z,2036.25
2019-03-20T08:08:20.073Z,2109.38
2019-03-20T08:09:20.065Z,2115.00
2019-03-20T08:10:20.047Z,2058.75
2019-03-20T08:11:20.018Z,2064.38
2019-03-20T08:12:20.006Z,2131.88
2019-03-20T08:13:20.043Z,2143.12
2019-03-20T08:14:19.992Z,2126.25
2019-03-20T08:15:19.982Z,2109.38
2019-03-20T08:16:19.975Z,2115.00
2019-03-20T08:17:19.957Z,2210.62
2019-03-20T08:18:19.985Z,2216.25
2019-03-20T08:19:19.954Z,2176.88
2019-03-20T08:20:19.933Z,2227.50
2019-03-20T08:21:19.911Z,2311.88
2019-03-20T08:22:19.896Z,2340.00
2019-03-20T08:23:19.888Z,2250.00
2019-03-20T08:24:19.897Z,2289.38
2019-03-20T08:25:19.908Z,2379.38
2019-03-20T08:26:19.867Z,2311.88
2019-03-20T08:27:19.892Z,2261.25
2019-03-20T08:28:19.843Z,2205.00
2019-03-20T08:29:19.852Z,2300.62
2019-03-20T08:30:19.813Z,2328.75
2019-03-20T08:31:19.800Z,2216.25
2019-03-20T08:32:19.795Z,2373.75
2019-03-20T08:33:19.819Z,2446.88
2019-03-20T08:34:19.778Z,2491.88
2019-03-20T08:35:19.782Z,2401.88
2019-03-20T08:36:19.746Z,2441.25
2019-03-20T08:37:19.745Z,2193.75
2019-03-20T08:38:19.747Z,2430.00
2019-03-20T08:39:19.734Z,2469.38
2019-03-20T08:40:19.728Z,2497.50
2019-03-20T08:41:19.703Z,2508.75
2019-03-20T08:42:19.714Z,2413.12
2019-03-20T08:43:19.680Z,2452.50
2019-03-20T08:44:19.662Z,2553.75
2019-03-20T08:45:19.699Z,2542.50
2019-03-20T08:46:19.649Z,2520.00
2019-03-20T08:47:19.640Z,2587.50
2019-03-20T08:48:19.628Z,2626.88
2019-03-20T08:49:19.631Z,2486.25
2019-03-20T08:50:19.596Z,2475.00
2019-03-20T08:51:19.612Z,2593.12
2019-03-20T08:52:19.606Z,2587.50
2019-03-20T08:53:19.565Z,2458.12
2019-03-20T08:54:19.557Z,2390.62
2019-03-20T08:55:19.551Z,2379.38
2019-03-20T08:56:19.555Z,2407.50
2019-03-20T08:57:19.532Z,2345.62
2019-03-20T08:58:19.539Z,2531.25
2019-03-20T08:59:19.507Z,2626.88
2019-03-20T09:00:19.501Z,2137.50
2019-03-20T09:01:28.097Z,2165.62
2019-03-20T09:02:20.675Z,2188.12
2019-03-20T09:03:19.461Z,2328.75
2019-03-20T09:04:19.451Z,2193.75
2019-03-20T09:05:19.454Z,2306.25
2019-03-20T09:06:19.438Z,2559.38
2019-03-20T09:07:19.436Z,2694.38
2019-03-20T09:08:28.753Z,2581.88
2019-03-20T09:09:20.403Z,2565.00
2019-03-20T09:10:19.395Z,2565.00
2019-03-20T09:11:19.386Z,2497.50
2019-03-20T09:12:19.377Z,2587.50
2019-03-20T09:13:19.376Z,2745.00
2019-03-20T09:14:19.379Z,2784.38
2019-03-20T09:15:19.334Z,2649.38
2019-03-20T09:16:19.324Z,2767.50
2019-03-20T09:17:19.319Z,2778.75
2019-03-20T09:18:19.324Z,2790.00
2019-03-20T09:19:19.302Z,2790.00
2019-03-20T09:20:19.298Z,2688.75
2019-03-20T09:21:19.273Z,2739.38
2019-03-20T09:22:19.259Z,2655.00
2019-03-20T09:23:19.280Z,2356.88
2019-03-20T09:24:20.199Z,2193.75
2019-03-20T09:25:19.228Z,2126.25
2019-03-20T09:26:19.224Z,2160.00
2019-03-20T09:27:19.246Z,2221.88
2019-03-20T09:28:19.225Z,2340.00
2019-03-20T09:29:19.205Z,2430.00
2019-03-20T09:30:19.181Z,2671.88
2019-03-20T09:31:19.236Z,3121.88
2019-03-20T09:32:19.160Z,2902.50
2019-03-20T09:33:19.176Z,2790.00
2019-03-20T09:34:19.133Z,3043.12
2019-03-20T09:35:19.130Z,3003.75
2019-03-20T09:36:19.113Z,3065.62
2019-03-20T09:37:19.113Z,2970.00
2019-03-20T09:38:19.115Z,2947.50
2019-03-20T09:39:19.082Z,3099.38
2019-03-20T09:40:19.070Z,3048.75
2019-03-20T09:41:19.070Z,3020.62
2019-03-20T09:42:19.059Z,3065.62
2019-03-20T09:43:19.064Z,3065.62
2019-03-20T09:44:19.032Z,3003.75
2019-03-20T09:45:19.023Z,2970.00
2019-03-20T09:46:19.014Z,2992.50
2019-03-20T09:47:19.002Z,2896.88
2019-03-20T09:48:19.010Z,2975.62
2019-03-20T09:49:18.996Z,3223.12
2019-03-20T09:50:19.003Z,3178.12
2019-03-20T09:51:18.962Z,3234.38
2019-03-20T09:52:18.955Z,3256.88
2019-03-20T09:53:18.941Z,3211.88
2019-03-20T09:54:18.929Z,3279.38
2019-03-20T09:55:18.924Z,3307.50
2019-03-20T09:56:18.930Z,3290.62
2019-03-20T09:57:18.896Z,3183.75
2019-03-20T09:58:18.884Z,3116.25
2019-03-20T09:59:18.874Z,3071.25
2019-03-20T10:00:18.879Z,2986.88
2019-03-20T10:01:18.886Z,2925.00
2019-03-20T10:02:18.846Z,2863.12
2019-03-20T10:03:18.841Z,2913.75
2019-03-20T10:04:18.828Z,3144.38
2019-03-20T10:05:18.813Z,3076.88
2019-03-20T10:06:18.845Z,3144.38
2019-03-20T10:07:18.806Z,3318.75
2019-03-20T10:08:18.780Z,3543.75
2019-03-20T10:09:18.803Z,3487.50
2019-03-20T10:10:18.764Z,3335.62
2019-03-20T10:11:18.790Z,3341.25
2019-03-20T10:12:18.758Z,3313.12
2019-03-20T10:13:18.754Z,3161.25
2019-03-20T10:14:18.722Z,3093.75
2019-03-20T10:15:18.718Z,3195.00
2019-03-20T10:16:18.726Z,3268.12
2019-03-20T10:17:18.704Z,3363.75
2019-03-20T10:18:18.681Z,3391.88
2019-03-20T10:19:18.665Z,3386.25
2019-03-20T10:20:18.654Z,3341.25
2019-03-20T10:21:18.653Z,3116.25
2019-03-20T10:22:18.672Z,3290.62
2019-03-20T10:23:18.630Z,3375.00
2019-03-20T10:24:18.635Z,3228.75
2019-03-20T10:25:18.614Z,3031.88
2019-03-20T10:26:18.593Z,3065.62
2019-03-20T10:27:18.586Z,3183.75
2019-03-20T10:28:18.595Z,3234.38
2019-03-20T10:29:18.563Z,3172.50
2019-03-20T10:30:18.557Z,3307.50
2019-03-20T10:31:18.538Z,3408.75
2019-03-20T10:32:18.531Z,3301.88
2019-03-20T10:33:18.553Z,3346.88
2019-03-20T10:34:18.517Z,3228.75
2019-03-20T10:35:18.503Z,3127.50
2019-03-20T10:36:18.506Z,3318.75
2019-03-20T10:37:18.479Z,3313.12
2019-03-20T10:38:18.498Z,3183.75
2019-03-20T10:39:18.458Z,3166.88
2019-03-20T10:40:18.447Z,3307.50
2019-03-20T10:41:18.462Z,3436.88
2019-03-20T10:42:18.446Z,3307.50
2019-03-20T10:43:18.417Z,3301.88
2019-03-20T10:44:18.430Z,3352.50
2019-03-20T10:45:18.401Z,3363.75
2019-03-20T10:46:18.391Z,3245.62
2019-03-20T10:47:18.386Z,2880.00
2019-03-20T10:48:18.388Z,2514.38
2019-03-20T10:49:18.401Z,2514.38
2019-03-20T10:50:18.393Z,2649.38
2019-03-20T10:51:18.339Z,2649.38
2019-03-20T10:52:18.327Z,2525.62
2019-03-20T10:53:18.325Z,2891.25
2019-03-20T10:54:18.329Z,3352.50
2019-03-20T10:55:18.300Z,3425.62
2019-03-20T10:56:18.295Z,3318.75
2019-03-20T10:57:18.274Z,3375.00
2019-03-20T10:58:18.263Z,3240.00
2019-03-20T10:59:18.281Z,3110.62
2019-03-20T11:00:18.286Z,3054.38
2019-03-20T11:01:18.237Z,2981.25
2019-03-20T11:02:18.239Z,1833.75
2019-03-20T11:03:18.210Z,646.88
2019-03-20T11:04:18.231Z,663.75
2019-03-20T11:05:18.197Z,720.00
2019-03-20T11:06:18.185Z,697.50
2019-03-20T11:07:18.188Z,2131.88
2019-03-20T11:08:18.168Z,2075.62
2019-03-20T11:09:18.824Z,2885.62
2019-03-20T11:10:18.138Z,3290.62
2019-03-20T11:11:26.527Z,3116.25
2019-03-20T11:12:19.138Z,3273.75
2019-03-20T11:13:18.124Z,2801.25
2019-03-20T11:14:18.105Z,2176.88
2019-03-20T11:15:18.113Z,2947.50
2019-03-20T11:16:18.101Z,2053.12
2019-03-20T11:17:18.070Z,2255.62
2019-03-20T11:18:18.060Z,900.00
2019-03-20T11:19:18.050Z,1721.25
2019-03-20T11:20:18.052Z,3487.50
2019-03-20T11:21:18.048Z,1586.25
2019-03-20T11:22:19.175Z,781.88
2019-03-20T11:23:18.006Z,866.25
2019-03-20T11:24:17.992Z,3262.50
2019-03-20T11:25:17.989Z,3532.50
2019-03-20T11:26:17.997Z,1186.88
2019-03-20T11:27:17.965Z,1102.50
2019-03-20T11:28:17.971Z,939.38
2019-03-20T11:29:21.639Z,843.75
2019-03-20T11:30:18.046Z,843.75
2019-03-20T11:31:17.945Z,883.12
2019-03-20T11:32:17.917Z,1023.75
2019-03-20T11:33:17.902Z,1012.50
2019-03-20T11:34:17.884Z,1023.75
2019-03-20T11:35:17.876Z,1074.38
2019-03-20T11:36:17.887Z,1012.50
2019-03-20T11:37:17.865Z,2531.25
2019-03-20T11:38:17.850Z,3161.25
2019-03-20T11:39:28.995Z,2435.62
2019-03-20T11:40:18.829Z,2486.25
2019-03-20T11:41:17.831Z,2143.12
2019-03-20T11:42:17.804Z,3065.62
2019-03-20T11:43:17.795Z,3003.75
2019-03-20T11:44:17.796Z,1906.88
2019-03-20T11:45:17.775Z,1181.25
2019-03-20T11:46:17.772Z,1316.25
2019-03-20T11:47:17.747Z,2008.12
2019-03-20T11:48:17.736Z,2598.75
2019-03-20T11:49:18.793Z,1175.62
2019-03-20T11:50:17.720Z,1085.62
2019-03-20T11:51:17.711Z,1884.38
2019-03-20T11:52:17.718Z,1788.75
2019-03-20T11:53:17.686Z,2722.50
2019-03-20T11:54:17.689Z,2936.25
2019-03-20T11:55:17.681Z,3099.38
2019-03-20T11:56:17.668Z,2520.00
2019-03-20T11:57:17.683Z,1299.38
2019-03-20T11:58:17.644Z,1091.25
2019-03-20T11:59:17.624Z,2559.38
2019-03-20T12:00:18.237Z,2356.88
2019-03-20T12:01:17.606Z,2626.88
2019-03-20T12:02:27.730Z,2520.00
2019-03-20T12:03:18.603Z,1929.38
2019-03-20T12:04:17.570Z,1383.75
2019-03-20T12:05:17.558Z,1659.38
2019-03-20T12:06:17.545Z,1681.88
2019-03-20T12:07:17.541Z,1524.38
2019-03-20T12:08:17.545Z,1434.38
2019-03-20T12:09:17.548Z,1445.62
2019-03-20T12:10:17.510Z,1074.38
2019-03-20T12:11:17.505Z,1231.88
2019-03-20T12:12:17.488Z,1597.50
2019-03-20T12:13:17.534Z,1541.25
2019-03-20T12:14:17.463Z,1777.50
2019-03-20T12:15:17.457Z,1029.38
2019-03-20T12:16:17.447Z,1468.12
2019-03-20T12:17:20.086Z,1192.50
2019-03-20T12:18:17.437Z,1828.12
2019-03-20T12:19:17.425Z,1861.88
2019-03-20T12:20:17.403Z,1147.50
2019-03-20T12:21:17.395Z,2092.50
2019-03-20T12:22:17.383Z,1620.00
2019-03-20T12:23:17.367Z,1192.50
2019-03-20T12:24:17.386Z,1136.25
2019-03-20T12:25:17.351Z,2086.88
2019-03-20T12:26:17.330Z,2171.25
2019-03-20T12:27:17.318Z,2126.25
2019-03-20T12:28:17.308Z,2255.62
2019-03-20T12:29:17.304Z,2283.75
2019-03-20T12:30:17.314Z,2328.75
2019-03-20T12:31:17.320Z,2356.88
2019-03-20T12:32:17.275Z,2278.12
2019-03-20T12:33:17.263Z,2368.12
2019-03-20T12:34:17.248Z,2413.12
2019-03-20T12:35:17.282Z,2418.75
2019-03-20T12:36:17.239Z,2525.62
2019-03-20T12:37:17.217Z,2587.50
2019-03-20T12:38:17.209Z,1040.62
2019-03-20T12:39:17.213Z,1006.88
2019-03-20T12:40:17.209Z,1051.88
2019-03-20T12:41:17.179Z,2694.38
2019-03-20T12:42:17.176Z,2902.50
2019-03-20T12:43:17.155Z,1153.12
2019-03-20T12:44:17.149Z,1535.62
2019-03-20T12:45:17.131Z,2148.75
2019-03-20T12:46:17.146Z,1012.50
2019-03-20T12:47:17.117Z,1867.50
2019-03-20T12:48:17.108Z,2655.00
2019-03-20T12:49:17.095Z,2632.50
2019-03-20T12:50:17.100Z,2638.12
2019-03-20T12:51:17.092Z,2677.50
2019-03-20T12:52:17.057Z,2705.62
2019-03-20T12:53:17.055Z,1141.88
2019-03-20T12:54:17.066Z,1631.25
2019-03-20T12:55:17.083Z,2306.25
2019-03-20T12:56:17.070Z,945.00
2019-03-20T12:57:17.022Z,2238.75
2019-03-20T12:58:16.997Z,2233.12
2019-03-20T12:59:16.994Z,2227.50
2019-03-20T13:00:16.973Z,2385.00
2019-03-20T13:01:16.985Z,1170.00
2019-03-20T13:02:16.957Z,2435.62
2019-03-20T13:03:16.951Z,2345.62
2019-03-20T13:04:16.942Z,2373.75
2019-03-20T13:05:16.936Z,2368.12
2019-03-20T13:06:16.945Z,2379.38
2019-03-20T13:07:16.949Z,2390.62
2019-03-20T13:08:16.895Z,2469.38
2019-03-20T13:09:16.890Z,2643.75
2019-03-20T13:10:16.874Z,2570.62
2019-03-20T13:11:16.879Z,1243.12
2019-03-20T13:12:16.873Z,1676.25
2019-03-20T13:13:16.974Z,1715.62
2019-03-20T13:14:16.830Z,2238.75
2019-03-20T13:15:16.826Z,1378.12
2019-03-20T13:16:16.813Z,883.12
2019-03-20T13:17:16.793Z,995.62
2019-03-20T13:18:17.355Z,2407.50
2019-03-20T13:19:16.785Z,2486.25
2019-03-20T13:20:16.775Z,2576.25
2019-03-20T13:21:16.788Z,2233.12
2019-03-20T13:22:16.753Z,2531.25
2019-03-20T13:23:16.771Z,978.75
2019-03-20T13:24:16.728Z,2671.88
2019-03-20T13:25:16.735Z,1940.62
2019-03-20T13:26:16.711Z,1046.25
2019-03-20T13:27:16.692Z,1417.50
2019-03-20T13:28:16.748Z,2615.62
2019-03-20T13:29:16.715Z,2587.50
2019-03-20T13:30:20.420Z,2773.12
2019-03-20T13:31:16.652Z,1136.25
2019-03-20T13:32:16.658Z,911.25
2019-03-20T13:33:25.295Z,2475.00
2019-03-20T13:34:17.623Z,894.38
2019-03-20T13:35:16.615Z,2531.25
2019-03-20T13:36:16.634Z,2559.38
2019-03-20T13:37:16.641Z,2688.75
2019-03-20T13:38:16.607Z,2593.12
2019-03-20T13:39:16.593Z,2424.38
2019-03-20T13:40:16.562Z,826.88
2019-03-20T13:41:16.554Z,781.88
2019-03-20T13:42:16.533Z,860.62
2019-03-20T13:43:16.555Z,759.38
2019-03-20T13:44:16.539Z,781.88
2019-03-20T13:45:16.505Z,781.88
2019-03-20T13:46:16.522Z,984.38
2019-03-20T13:47:16.566Z,2238.75
2019-03-20T13:48:16.477Z,1445.62
2019-03-20T13:49:16.510Z,939.38
2019-03-20T13:50:16.468Z,1676.25
2019-03-20T13:51:16.457Z,2233.12
2019-03-20T13:52:16.456Z,2238.75
2019-03-20T13:53:16.460Z,2311.88
2019-03-20T13:54:16.420Z,2199.38
2019-03-20T13:55:16.431Z,1935.00
2019-03-20T13:56:16.407Z,877.50
2019-03-20T13:57:16.394Z,697.50
2019-03-20T13:58:16.373Z,630.00
2019-03-20T13:59:16.396Z,652.50
2019-03-20T14:00:16.346Z,2086.88
2019-03-20T14:01:16.350Z,703.12
2019-03-20T14:02:16.334Z,1698.75
2019-03-20T14:03:16.320Z,686.25
2019-03-20T14:04:16.340Z,646.88
2019-03-20T14:05:16.293Z,669.38
2019-03-20T14:06:16.311Z,1428.75
2019-03-20T14:07:16.279Z,849.38
2019-03-20T14:08:16.269Z,1946.25
2019-03-20T14:09:16.250Z,2058.75
2019-03-20T14:10:24.630Z,1850.62
2019-03-20T14:11:17.281Z,922.50
2019-03-20T14:12:16.221Z,815.62
2019-03-20T14:13:16.205Z,770.62
2019-03-20T14:14:16.190Z,697.50
2019-03-20T14:15:16.181Z,675.00
2019-03-20T14:16:16.170Z,810.00
2019-03-20T14:17:16.195Z,883.12
2019-03-20T14:18:16.153Z,663.75
2019-03-20T14:19:16.155Z,641.25
2019-03-20T14:20:16.154Z,1552.50
2019-03-20T14:21:16.149Z,1636.88
2019-03-20T14:22:16.110Z,1563.75
2019-03-20T14:23:16.119Z,1631.25
2019-03-20T14:24:16.096Z,1698.75
2019-03-20T14:25:16.089Z,1816.88
2019-03-20T14:26:16.178Z,1693.12
2019-03-20T14:27:16.207Z,1563.75
2019-03-20T14:28:16.106Z,1355.62
2019-03-20T14:29:16.039Z,1546.88
2019-03-20T14:30:16.081Z,1715.62
2019-03-20T14:31:16.156Z,1063.12
2019-03-20T14:32:16.013Z,1535.62
2019-03-20T14:33:16.007Z,1625.62
2019-03-20T14:34:15.990Z,1715.62
2019-03-20T14:35:15.980Z,1614.38
2019-03-20T14:36:16.006Z,1659.38
2019-03-20T14:37:15.963Z,1350.00
2019-03-20T14:38:15.981Z,1423.12
2019-03-20T14:39:15.984Z,1575.00
2019-03-20T14:40:15.928Z,1215.00
2019-03-20T14:41:21.414Z,506.25
2019-03-20T14:42:16.908Z,495.00
2019-03-20T14:43:15.994Z,489.38
2019-03-20T14:44:15.885Z,478.12
2019-03-20T14:45:15.865Z,450.00
2019-03-20T14:46:15.888Z,433.12
2019-03-20T14:47:15.844Z,433.12
2019-03-20T14:48:15.857Z,416.25
2019-03-20T14:49:15.825Z,393.75
2019-03-20T14:50:15.826Z,388.12
2019-03-20T14:51:15.824Z,388.12
2019-03-20T14:52:15.813Z,798.75
2019-03-20T14:53:15.815Z,1085.62
2019-03-20T14:54:15.775Z,607.50
2019-03-20T14:55:15.761Z,590.62
2019-03-20T14:56:18.112Z,545.62
2019-03-20T14:57:15.726Z,500.62
2019-03-20T14:58:15.740Z,427.50
2019-03-20T14:59:15.733Z,489.38
2019-03-20T15:00:15.709Z,528.75
2019-03-20T15:01:15.693Z,523.12
2019-03-20T15:02:15.690Z,455.62
2019-03-20T15:03:15.675Z,905.62
2019-03-20T15:04:15.692Z,1085.62
2019-03-20T15:05:15.661Z,1006.88
2019-03-20T15:06:15.650Z,1040.62
2019-03-20T15:07:15.655Z,945.00
2019-03-20T15:08:15.619Z,1147.50
2019-03-20T15:09:15.657Z,1136.25
2019-03-20T15:10:15.597Z,973.12
2019-03-20T15:11:15.605Z,489.38
2019-03-20T15:12:15.580Z,421.88
2019-03-20T15:13:15.572Z,388.12
2019-03-20T15:14:15.576Z,360.00
2019-03-20T15:15:15.558Z,348.75
2019-03-20T15:16:15.587Z,343.12
2019-03-20T15:17:15.523Z,348.75
2019-03-20T15:18:15.561Z,354.38
2019-03-20T15:19:15.530Z,354.38
2019-03-20T15:20:15.514Z,343.12
2019-03-20T15:21:15.493Z,331.88
2019-03-20T15:22:15.459Z,309.38
2019-03-20T15:23:15.454Z,292.50
2019-03-20T15:24:15.456Z,270.00
2019-03-20T15:25:15.443Z,258.75
2019-03-20T15:26:15.466Z,264.38
2019-03-20T15:27:15.416Z,292.50
2019-03-20T15:28:15.401Z,315.00
2019-03-20T15:29:15.407Z,320.62
2019-03-20T15:30:15.401Z,298.12
2019-03-20T15:31:15.403Z,275.62
2019-03-20T15:32:15.361Z,270.00
2019-03-20T15:33:15.355Z,270.00
2019-03-20T15:34:15.347Z,292.50
2019-03-20T15:35:15.377Z,303.75
2019-03-20T15:36:15.351Z,309.38
2019-03-20T15:37:15.308Z,309.38
2019-03-20T15:38:15.315Z,309.38
2019-03-20T15:39:15.343Z,303.75
2019-03-20T15:40:15.290Z,292.50
2019-03-20T15:41:15.284Z,286.88
2019-03-20T15:42:15.269Z,275.62
2019-03-20T15:43:15.238Z,270.00
2019-03-20T15:44:15.240Z,258.75
2019-03-20T15:45:15.223Z,258.75
2019-03-20T15:46:15.244Z,253.12
2019-03-20T15:47:15.223Z,253.12
2019-03-20T15:48:15.205Z,247.50
2019-03-20T15:49:15.184Z,230.62
2019-03-20T15:50:15.168Z,213.75
2019-03-20T15:51:15.157Z,202.50
2019-03-20T15:52:15.175Z,185.62
2019-03-20T15:53:15.139Z,174.38
2019-03-20T15:54:15.136Z,163.12
2019-03-20T15:55:15.112Z,157.50
2019-03-20T15:56:15.117Z,151.88
2019-03-20T15:57:15.095Z,146.25
2019-03-20T15:58:15.108Z,140.62
2019-03-20T15:59:15.079Z,140.62
2019-03-20T16:00:15.091Z,140.62
2019-03-20T16:01:15.052Z,140.62
2019-03-20T16:02:15.083Z,140.62
2019-03-20T16:03:15.075Z,140.62
2019-03-20T16:04:15.039Z,140.62
2019-03-20T16:05:15.007Z,140.62
2019-03-20T16:06:15.020Z,146.25
2019-03-20T16:07:14.986Z,140.62
2019-03-20T16:08:14.984Z,135.00
2019-03-20T16:09:14.970Z,135.00
2019-03-20T16:10:14.955Z,129.38
2019-03-20T16:11:14.955Z,123.75
2019-03-20T16:12:14.962Z,118.12
2019-03-20T16:13:14.938Z,118.12
2019-03-20T16:14:14.904Z,106.88
2019-03-20T16:15:14.918Z,101.25
2019-03-20T16:16:14.909Z,101.25
2019-03-20T16:17:14.890Z,95.62
2019-03-20T16:18:14.907Z,101.25
2019-03-20T16:19:14.850Z,106.88
2019-03-20T16:20:14.846Z,106.88
2019-03-20T16:21:14.833Z,106.88
2019-03-20T16:22:14.829Z,106.88
2019-03-20T16:23:14.825Z,106.88
2019-03-20T16:24:14.836Z,101.25
2019-03-20T16:25:14.787Z,101.25
2019-03-20T16:26:14.807Z,90.00
2019-03-20T16:27:14.765Z,90.00
2019-03-20T16:28:14.757Z,90.00
2019-03-20T16:29:14.758Z,84.38
2019-03-20T16:30:14.779Z,84.38
2019-03-20T16:31:14.731Z,84.38
2019-03-20T16:32:14.725Z,84.38
2019-03-20T16:33:14.704Z,84.38
2019-03-20T16:34:14.694Z,78.75
2019-03-20T16:35:14.717Z,78.75
2019-03-20T16:36:14.686Z,73.12
2019-03-20T16:37:14.661Z,73.12
2019-03-20T16:38:14.681Z,67.50
2019-03-20T16:39:14.640Z,67.50
2019-03-20T16:40:14.660Z,61.88
2019-03-20T16:41:16.934Z,61.88
2019-03-20T16:42:14.606Z,56.25
2019-03-20T16:43:14.600Z,56.25
2019-03-20T16:44:14.607Z,50.62
2019-03-20T16:45:14.627Z,50.62
2019-03-20T16:46:14.602Z,50.62
2019-03-20T16:47:14.547Z,50.62
2019-03-20T16:48:14.534Z,45.00
2019-03-20T16:49:14.532Z,45.00
2019-03-20T16:50:14.525Z,45.00
2019-03-20T16:51:14.563Z,45.00
2019-03-20T16:52:15.696Z,39.38
2019-03-20T16:53:14.486Z,33.75
2019-03-20T16:54:14.475Z,33.75
2019-03-20T16:55:14.476Z,28.12
2019-03-20T16:56:14.492Z,28.12
2019-03-20T16:57:14.446Z,28.12
2019-03-20T16:58:14.429Z,22.50
2019-03-20T16:59:14.409Z,22.50
2019-03-20T17:00:14.409Z,22.50
2019-03-20T17:01:14.398Z,16.88
2019-03-20T17:02:14.424Z,16.88
2019-03-20T17:03:14.379Z,16.88
2019-03-20T17:04:14.366Z,11.25
2019-03-20T17:05:14.356Z,11.25
2019-03-20T17:06:14.359Z,11.25
2019-03-20T17:07:14.360Z,11.25
2019-03-20T17:08:14.331Z,5.62
2019-03-20T17:09:14.304Z,5.62
2019-03-20T17:10:14.291Z,5.62
2019-03-20T17:11:14.285Z,5.62
2019-03-20T17:12:14.438Z,5.62
2019-03-20T17:13:14.272Z,5.62
2019-03-20T17:14:14.260Z,5.62
2019-03-20T17:15:14.244Z,5.62
2019-03-20T17:16:14.233Z,5.62
2019-03-20T17:17:14.236Z,0.00
2019-03-20T17:18:14.229Z,0.00
2019-03-20T17:19:14.196Z,0.00
2019-03-20T17:20:14.199Z,0.00
2019-03-20T17:21:14.185Z,0.00
2019-03-20T17:22:14.172Z,0.00
2019-03-20T17:23:14.176Z,0.00
2019-03-20T17:24:14.143Z,0.00
2019-03-20T17:25:14.151Z,0.00
2019-03-20T17:26:14.132Z,0.00
2019-03-20T17:27:14.119Z,0.00
2019-03-20T17:28:14.127Z,0.00
2019-03-20T17:29:14.100Z,0.00
2019-03-20T17:30:14.087Z,0.00
2019-03-20T17:31:14.080Z,0.00
2019-03-20T17:32:14.068Z,0.00
2019-03-20T17:33:14.082Z,0.00
2019-03-20T17:34:14.414Z,0.00
2019-03-20T17:35:14.041Z,0.00
2019-03-20T17:36:14.031Z,0.00
2019-03-20T17:37:14.013Z,0.00
2019-03-20T17:38:13.994Z,0.00
2019-03-20T17:39:14.048Z,0.00
2019-03-20T17:40:14.005Z,0.00
2019-03-20T17:41:13.976Z,0.00
2019-03-20T17:42:13.965Z,0.00
2019-03-20T17:43:13.955Z,0.00
2019-03-20T17:44:13.937Z,0.00
2019-03-20T17:45:13.969Z,0.00
2019-03-20T17:46:13.955Z,0.00
2019-03-20T17:47:13.915Z,0.00
2019-03-20T17:48:13.899Z,0.00
2019-03-20T17:49:13.885Z,0.00
2019-03-20T17:50:13.866Z,0.00
2019-03-20T17:51:13.880Z,0.00
2019-03-20T17:52:13.850Z,0.00
2019-03-20T17:53:13.839Z,0.00
2019-03-20T17:54:13.828Z,0.00
2019-03-20T17:55:13.845Z,0.00
2019-03-20T17:56:13.803Z,0.00
2019-03-20T17:57:13.803Z,0.00
2019-03-20T17:58:13.815Z,0.00
2019-03-20T17:59:13.779Z,0.00
2019-03-20T18:00:13.765Z,0.00
2019-03-20T18:01:13.767Z,0.00
2019-03-20T18:02:23.466Z,0.00
2019-03-20T18:03:14.730Z,0.00
2019-03-20T18:04:13.719Z,0.00
2019-03-20T18:05:13.725Z,0.00
2019-03-20T18:06:13.896Z,0.00
2019-03-20T18:07:13.718Z,0.00
2019-03-20T18:08:13.679Z,0.00
2019-03-20T18:09:13.674Z,0.00
2019-03-20T18:10:13.726Z,0.00
2019-03-20T18:11:13.705Z,0.00
2019-03-20T18:12:13.647Z,0.00
2019-03-20T18:13:13.624Z,0.00
2019-03-20T18:14:13.617Z,0.00
2019-03-20T18:15:13.611Z,0.00
2019-03-20T18:16:13.629Z,0.00
2019-03-20T18:17:13.587Z,0.00
2019-03-20T18:18:13.589Z,0.00
2019-03-20T18:19:14.575Z,0.00
2019-03-20T18:20:13.559Z,0.00
2019-03-20T18:21:13.573Z,0.00
2019-03-20T18:22:13.569Z,0.00
2019-03-20T18:23:14.418Z,0.00
2019-03-20T18:24:13.522Z,0.00
2019-03-20T18:25:13.507Z,0.00
2019-03-20T18:26:13.532Z,0.00
2019-03-20T18:27:13.476Z,0.00
2019-03-20T18:28:13.465Z,0.00
2019-03-20T18:29:13.461Z,0.00
2019-03-20T18:30:13.474Z,0.00
2019-03-20T18:31:13.468Z,0.00
2019-03-20T18:32:13.932Z,0.00
2019-03-20T18:33:13.427Z,0.00
2019-03-20T18:34:13.414Z,0.00
2019-03-20T18:35:13.411Z,0.00
2019-03-20T18:36:13.386Z,0.00
2019-03-20T18:37:13.385Z,0.00
2019-03-20T18:38:13.386Z,0.00
2019-03-20T18:39:13.381Z,0.00
2019-03-20T18:40:13.348Z,0.00
2019-03-20T18:41:13.339Z,0.00
2019-03-20T18:42:13.339Z,0.00
2019-03-20T18:43:13.344Z,0.00
2019-03-20T18:44:13.316Z,0.00
2019-03-20T18:45:13.298Z,0.00
2019-03-20T18:46:13.280Z,0.00
2019-03-20T18:47:13.296Z,0.00
2019-03-20T18:48:13.267Z,0.00
2019-03-20T18:49:13.302Z,0.00
2019-03-20T18:50:13.255Z,0.00
2019-03-20T18:51:13.239Z,0.00
2019-03-20T18:52:13.222Z,0.00
2019-03-20T18:53:13.248Z,0.00
2019-03-20T18:54:13.192Z,0.00
2019-03-20T18:55:13.186Z,0.00
2019-03-20T18:56:14.165Z,0.00
2019-03-20T18:57:13.162Z,0.00
2019-03-20T18:58:13.203Z,0.00
2019-03-20T18:59:13.140Z,0.00
2019-03-20T19:00:13.132Z,0.00
2019-03-20T19:01:13.124Z,0.00
2019-03-20T19:02:13.120Z,0.00
2019-03-20T19:03:13.133Z,0.00
2019-03-20T19:04:13.104Z,0.00
2019-03-20T19:05:13.102Z,0.00
2019-03-20T19:06:14.443Z,0.00
2019-03-20T19:07:13.056Z,0.00
2019-03-20T19:08:13.062Z,0.00
2019-03-20T19:09:13.838Z,0.00
2019-03-20T19:10:13.312Z,0.00
2019-03-20T19:11:13.918Z,0.00
2019-03-20T19:12:13.509Z,0.00
2019-03-20T19:13:13.864Z,0.00
2019-03-20T19:14:15.671Z,0.00
2019-03-20T19:15:13.766Z,0.00
2019-03-20T19:16:14.536Z,0.00
2019-03-20T19:17:13.706Z,0.00
2019-03-20T19:18:13.519Z,0.00
2019-03-20T19:19:13.225Z,0.00
2019-03-20T19:20:12.932Z,0.00
2019-03-20T19:21:12.946Z,0.00
2019-03-20T19:22:12.896Z,0.00
2019-03-20T19:23:12.886Z,0.00
2019-03-20T19:24:12.885Z,0.00
2019-03-20T19:25:12.905Z,0.00
2019-03-20T19:26:12.850Z,0.00
2019-03-20T19:27:12.848Z,0.00
2019-03-20T19:28:12.835Z,0.00
2019-03-20T19:29:12.823Z,0.00
2019-03-20T19:30:12.813Z,0.00
2019-03-20T19:31:12.845Z,0.00
2019-03-20T19:32:12.790Z,0.00
2019-03-20T19:33:12.799Z,0.00
2019-03-20T19:34:12.771Z,0.00
2019-03-20T19:35:12.765Z,0.00
2019-03-20T19:36:12.781Z,0.00
2019-03-20T19:37:13.401Z,0.00
2019-03-20T19:38:12.727Z,0.00
2019-03-20T19:39:12.722Z,0.00
2019-03-20T19:40:12.698Z,0.00
2019-03-20T19:41:12.717Z,0.00
2019-03-20T19:42:19.919Z,0.00
2019-03-20T19:43:13.680Z,0.00
2019-03-20T19:44:12.662Z,0.00
2019-03-20T19:45:12.668Z,0.00
2019-03-20T19:46:12.661Z,0.00
2019-03-20T19:47:12.638Z,0.00
2019-03-20T19:48:13.830Z,0.00
2019-03-20T19:49:12.606Z,0.00
2019-03-20T19:50:12.660Z,0.00
2019-03-20T19:51:12.652Z,0.00
2019-03-20T19:52:12.589Z,0.00
2019-03-20T19:53:12.601Z,0.00
2019-03-20T19:54:12.581Z,0.00